Time;durP1;ratioP1;P1;durP2;ratioP2;P2;SDS_P1;SDS_P2;PMS_P1;PMS_P2;Temp;Humidity;BMP_temperature;BMP_pressure;BME280_temperature;BME280_humidity;BME280_pressure;Samples;Min_cycle;Max_cycle;Signal;HPM_P1;HPM_P2
2022/02/05 00:00:53;;;;;;;;;;;;;;;4.82;73.03;100255.06;5109133;28;19918;-66
2022/02/05 00:03:28;;;;;;;;;;;;;;;4.83;73.40;100252.31;5088958;28;19916;-66
2022/02/05 00:06:00;;;;;;;;;;;;;;;4.89;73.04;100257.22;5091434;28;19912;-66
2022/02/05 00:41:00;;;;;;;;;;;;;;;4.89;72.63;100241.28;5090619;28;19923;-67
2022/02/05 00:43:21;;;;;;;;;;;;;;;4.86;72.70;100243.31;5094784;28;19916;-66
2022/02/05 00:45:54;;;;;;;;;;;;;;;4.78;72.95;100241.16;5090248;28;20407;-67
2022/02/05 00:48:20;;;;;;;;;;;;;;;4.73;73.05;100245.91;5106329;28;19915;-69
2022/02/05 00:50:52;;;;;;;;;;;;;;;4.68;73.57;100248.84;5089127;28;19916;-69
2022/02/05 00:55:56;;;;;;;;;;;;;;;4.61;73.77;100254.66;5097742;28;20403;-68
2022/02/05 00:58:22;;;;;;;;;;;;;;;4.54;74.61;100253.34;5094330;28;19969;-67
2022/02/05 01:00:47;;;;;;;;;;;;;;;4.48;74.91;100245.75;5108665;28;19951;-68
2022/02/05 01:03:14;;;;;;;;;;;;;;;4.42;75.52;100244.38;5091207;28;20290;-68
2022/02/05 01:05:40;;;;;;;;;;;;;;;4.41;75.40;100242.66;5089321;28;19919;-68
2022/02/05 01:08:05;;;;;;;;;;;;;;;4.35;75.69;100235.09;5103859;28;19958;-68
2022/02/05 01:10:31;;;;;;;;;;;;;;;4.33;75.89;100233.50;5092733;28;19955;-68
2022/02/05 01:13:04;;;;;;;;;;;;;;;4.32;76.27;100232.63;5091249;28;19923;-68
2022/02/05 01:15:59;;;;;;;;;;;;;;;4.31;76.45;100225.63;5093433;28;19941;-68
2022/02/05 01:18:19;;;;;;;;;;;;;;;4.30;76.67;100218.63;5103192;28;20433;-68
2022/02/05 01:21:04;;;;;;;;;;;;;;;4.31;76.43;100220.31;5101736;28;20372;-69
2022/02/05 01:23:45;;;;;;;;;;;;;;;4.30;76.69;100221.28;5108516;28;19912;-69
2022/02/05 01:26:29;;;;;;;;;;;;;;;4.32;76.73;100224.66;5098124;28;19998;-69
2022/02/05 01:29:06;;;;;;;;;;;;;;;4.29;76.78;100229.34;5092208;28;19916;-67
2022/02/05 01:31:39;;;;;;;;;;;;;;;4.28;76.67;100223.16;5102594;28;19927;-67
2022/02/05 01:34:24;;;;;;;;;;;;;;;4.26;76.80;100216.25;5100439;28;19915;-67
2022/02/05 02:12:11;;;;;;;;;;;;;;;3.96;77.39;100269.44;5029279;28;19921;-67
2022/02/05 02:25:09;;;;;;;;;;;;;;;3.68;78.64;100263.28;5106568;28;19911;-67
2022/02/05 02:32:36;;;;;;;;;;;;;;;3.51;78.80;100263.44;5094185;28;19977;-68
2022/02/05 02:35:07;;;;;;;;;;;;;;;3.45;78.85;100267.28;5093922;28;19920;-68
2022/02/05 02:37:46;;;;;;;;;;;;;;;3.39;79.37;100259.69;5092298;28;19929;-67
2022/02/05 02:40:41;;;;;;;;;;;;;;;3.33;79.62;100272.47;5107818;28;19912;-66
2022/02/05 02:43:09;;;;;;;;;;;;;;;3.26;79.65;100263.19;5099479;28;19912;-67
2022/02/05 02:45:35;;;;;;;;;;;;;;;3.14;79.28;100264.75;5091332;28;19911;-67
2022/02/05 02:48:00;;;;;;;;;;;;;;;3.07;79.54;100258.13;5095532;28;19919;-67
2022/02/05 02:56:26;;;;;;;;;;;;;;;3.01;79.68;100261.13;5104060;28;19915;-67
2022/02/05 02:58:49;;;;;;;;;;;;;;;2.81;80.46;100255.25;5093834;28;20372;-67
2022/02/05 03:01:18;;;;;;;;;;;;;;;2.74;80.75;100254.72;5100616;28;20414;-67
2022/02/05 03:03:43;;;;;;;;;;;;;;;2.67;81.39;100250.72;5088355;28;19939;-67
2022/02/05 03:06:09;;;;;;;;;;;;;;;2.65;81.73;100246.47;5108508;28;19912;-65
2022/02/05 03:08:34;;;;;;;;;;;;;;;2.64;83.25;100250.91;5097975;28;19951;-66
2022/02/05 03:10:59;;;;;;;;;;;;;;;2.64;84.76;100244.78;5092156;28;19919;-67
2022/02/05 03:13:25;;;;;;;;;;;;;;;2.63;85.84;100241.25;5092543;28;19920;-67
2022/02/05 03:15:52;;;;;;;;;;;;;;;2.66;87.15;100246.38;5101833;28;19912;-67
2022/02/05 03:18:30;;;;;;;;;;;;;;;2.69;88.06;100253.28;5097310;28;20288;-68
2022/02/05 03:20:55;;;;;;;;;;;;;;;2.73;89.53;100254.81;5108403;28;19951;-68
2022/02/05 03:23:20;;;;;;;;;;;;;;;2.80;90.02;100258.84;5102813;28;19992;-68
2022/02/05 03:25:46;;;;;;;;;;;;;;;2.81;91.05;100263.19;5103627;28;19912;-68
2022/02/05 03:28:11;;;;;;;;;;;;;;;2.90;91.56;100267.97;5097023;28;19912;-69
2022/02/05 03:30:36;;;;;;;;;;;;;;;2.91;91.61;100269.66;5090744;28;19912;-68
2022/02/05 03:33:02;;;;;;;;;;;;;;;2.97;92.26;100272.81;5105460;28;19915;-68
2022/02/05 03:35:27;;;;;;;;;;;;;;;3.00;92.22;100275.28;5092548;28;19998;-68
2022/02/05 03:37:53;;;;;;;;;;;;;;;3.02;92.29;100269.88;5094869;28;19912;-68
2022/02/05 03:40:18;;;;;;;;;;;;;;;3.06;92.35;100274.09;5092653;28;19940;-68
2022/02/05 03:42:43;;;;;;;;;;;;;;;3.08;92.29;100273.06;5089040;28;19916;-68
2022/02/05 03:45:09;;;;;;;;;;;;;;;3.13;92.77;100278.91;5101209;28;20086;-68
2022/02/05 03:47:35;;;;;;;;;;;;;;;3.13;92.88;100270.16;5101433;28;19969;-67
2022/02/05 03:50:01;;;;;;;;;;;;;;;3.17;92.81;100282.25;5103085;28;19915;-68
2022/02/05 03:52:26;;;;;;;;;;;;;;;3.17;93.02;100277.81;5091310;28;19930;-68
2022/02/05 03:54:51;;;;;;;;;;;;;;;3.18;93.12;100278.66;5091351;28;19985;-68
2022/02/05 03:57:16;;;;;;;;;;;;;;;3.20;92.81;100288.25;5089850;28;20020;-67
2022/02/05 03:59:42;;;;;;;;;;;;;;;3.21;92.88;100295.25;5094753;28;19920;-67
2022/02/05 04:02:07;;;;;;;;;;;;;;;3.22;93.21;100293.47;5091915;28;19915;-67
2022/02/05 04:04:32;;;;;;;;;;;;;;;3.24;92.93;100288.91;5100355;28;19912;-67
2022/02/05 04:07:01;;;;;;;;;;;;;;;3.25;92.92;100293.25;5100974;28;19935;-67
2022/02/05 04:09:33;;;;;;;;;;;;;;;3.24;93.02;100292.41;5089248;28;19916;-67
2022/02/05 04:15:57;;;;;;;;;;;;;;;3.25;92.84;100293.25;5099568;28;19916;-68
2022/02/05 04:17:28;;;;;;;;;;;;;;;3.26;93.07;100305.59;5101722;28;19923;-67
2022/02/05 04:19:54;;;;;;;;;;;;;;;3.27;92.88;100309.94;5099019;28;20660;-67
2022/02/05 04:22:19;;;;;;;;;;;;;;;3.27;92.85;100307.28;5099843;28;20028;-67
2022/02/05 04:24:44;;;;;;;;;;;;;;;3.29;92.48;100310.72;5088629;28;19916;-67
2022/02/05 04:27:10;;;;;;;;;;;;;;;3.29;91.97;100314.19;5092146;28;19916;-67
2022/02/05 04:29:36;;;;;;;;;;;;;;;3.31;92.57;100307.00;5105854;28;19933;-67
2022/02/05 04:32:01;;;;;;;;;;;;;;;3.33;92.37;100314.88;5090985;28;19937;-68
2022/02/05 04:34:26;;;;;;;;;;;;;;;3.36;92.56;100318.22;5107865;28;19921;-68
2022/02/05 04:36:52;;;;;;;;;;;;;;;3.35;92.75;100315.66;5101703;28;19977;-68
2022/02/05 04:39:19;;;;;;;;;;;;;;;3.35;92.97;100316.50;5099498;28;19927;-68
2022/02/05 04:42:02;;;;;;;;;;;;;;;3.44;93.08;100323.91;5089886;28;19954;-68
2022/02/05 04:44:54;;;;;;;;;;;;;;;3.45;92.89;100324.78;5091864;28;19911;-68
2022/02/05 04:48:23;;;;;;;;;;;;;;;3.42;93.33;100317.81;5100788;28;20325;-68
2022/02/05 05:01:14;;;;;;;;;;;;;;;3.46;92.95;100337.06;5109187;28;19919;-68
2022/02/05 05:09:42;;;;;;;;;;;;;;;3.51;93.97;100356.22;5101527;28;19970;-68
2022/02/05 05:12:03;;;;;;;;;;;;;;;3.47;93.84;100346.72;5097878;28;20355;-68
2022/02/05 05:19:57;;;;;;;;;;;;;;;3.50;94.78;100343.91;5097265;28;19923;-66
2022/02/05 05:22:22;;;;;;;;;;;;;;;3.52;94.96;100344.66;5111103;28;20379;-67
2022/02/05 05:24:47;;;;;;;;;;;;;;;3.52;95.08;100350.81;5105653;28;20354;-67
2022/02/05 05:27:12;;;;;;;;;;;;;;;3.54;94.82;100354.22;5104244;28;19912;-67
2022/02/05 05:29:38;;;;;;;;;;;;;;;3.56;94.61;100354.16;5096321;28;20451;-68
2022/02/05 05:32:04;;;;;;;;;;;;;;;3.58;93.87;100360.22;5093706;28;19920;-67
2022/02/05 05:34:29;;;;;;;;;;;;;;;3.55;93.96;100347.16;5106875;28;19911;-67
2022/02/05 05:36:56;;;;;;;;;;;;;;;3.57;93.40;100364.66;5104449;28;19915;-67
2022/02/05 05:39:21;;;;;;;;;;;;;;;3.54;93.04;100378.09;5092596;28;19916;-66
2022/02/05 05:41:46;;;;;;;;;;;;;;;3.52;93.05;100377.31;5091491;28;19964;-66
2022/02/05 05:46:47;;;;;;;;;;;;;;;3.74;91.44;100382.25;5098296;28;19912;-66
2022/02/05 05:49:15;;;;;;;;;;;;;;;3.76;90.62;100394.47;5100089;28;20006;-67
2022/02/05 05:51:41;;;;;;;;;;;;;;;3.73;90.70;100392.00;5097364;28;20306;-67
2022/02/05 05:54:07;;;;;;;;;;;;;;;3.66;90.85;100403.91;5111240;28;19998;-66
2022/02/05 05:56:33;;;;;;;;;;;;;;;3.63;90.84;100397.91;5106672;28;19949;-67
2022/02/05 05:58:59;;;;;;;;;;;;;;;3.53;91.38;100396.75;5091715;28;19985;-68
2022/02/05 06:01:24;;;;;;;;;;;;;;;3.53;91.45;100394.97;5091295;28;19916;-67
2022/02/05 06:03:50;;;;;;;;;;;;;;;3.48;91.42;100390.88;5101040;27;19915;-67
2022/02/05 06:06:15;;;;;;;;;;;;;;;3.48;91.38;100396.16;5100561;27;19912;-66
2022/02/05 06:08:40;;;;;;;;;;;;;;;3.53;91.05;100407.34;5092371;28;19987;-67
2022/02/05 06:11:06;;;;;;;;;;;;;;;3.48;91.52;100402.31;5098304;28;19918;-66
2022/02/05 06:13:33;;;;;;;;;;;;;;;3.45;92.09;100409.59;5098847;28;19918;-67
2022/02/05 06:15:59;;;;;;;;;;;;;;;3.40;92.35;100412.50;5103098;28;19926;-66
2022/02/05 06:18:25;;;;;;;;;;;;;;;3.36;92.57;100413.63;5088801;28;20280;-66
2022/02/05 06:20:50;;;;;;;;;;;;;;;3.40;92.49;100415.16;5091580;28;20052;-67
2022/02/05 06:23:15;;;;;;;;;;;;;;;3.38;92.51;100419.69;5105827;28;20368;-67
2022/02/05 06:25:41;;;;;;;;;;;;;;;3.38;92.92;100422.34;5104515;28;20373;-66
2022/02/05 06:28:09;;;;;;;;;;;;;;;3.40;92.41;100424.91;5091037;28;19937;-67
2022/02/05 06:30:35;;;;;;;;;;;;;;;3.39;92.83;100436.44;5087541;28;19915;-67
2022/02/05 06:33:00;;;;;;;;;;;;;;;3.43;92.68;100435.31;5097208;28;19927;-67
2022/02/05 06:35:25;;;;;;;;;;;;;;;3.44;92.73;100437.03;5097173;28;19915;-67
2022/02/05 06:37:51;;;;;;;;;;;;;;;3.48;92.56;100438.59;5091646;28;19957;-67
2022/02/05 06:40:16;;;;;;;;;;;;;;;3.47;92.68;100450.97;5105709;28;19923;-67
2022/02/05 06:42:45;;;;;;;;;;;;;;;3.50;92.16;100449.94;5087804;28;19916;-67
2022/02/05 06:45:11;;;;;;;;;;;;;;;3.73;90.53;100454.78;5091868;28;19916;-65
2022/02/05 06:47:36;;;;;;;;;;;;;;;3.78;90.54;100466.00;5102006;28;19919;-66
2022/02/05 06:50:01;;;;;;;;;;;;;;;3.77;90.34;100462.47;5090281;28;19914;-67
2022/02/05 06:52:27;;;;;;;;;;;;;;;3.82;90.03;100475.47;5103801;28;20328;-67
2022/02/05 06:54:52;;;;;;;;;;;;;;;3.79;90.45;100473.00;5092872;28;19984;-67
2022/02/05 06:57:17;;;;;;;;;;;;;;;3.78;90.90;100468.66;5106522;28;19915;-66
2022/02/05 06:59:42;;;;;;;;;;;;;;;3.89;89.86;100471.50;5098385;28;20337;-66
2022/02/05 07:02:08;;;;;;;;;;;;;;;4.01;89.07;100484.06;5088967;28;20003;-66
2022/02/05 07:04:33;;;;;;;;;;;;;;;3.87;89.82;100476.91;5087733;28;19996;-67
2022/02/05 07:06:58;;;;;;;;;;;;;;;3.80;90.43;100490.59;5103195;28;19915;-66
2022/02/05 07:09:27;;;;;;;;;;;;;;;3.82;90.49;100494.03;5093212;28;19926;-66
2022/02/05 07:11:53;;;;;;;;;;;;;;;3.77;90.58;100488.16;5089974;28;19920;-66
2022/02/05 07:14:21;;;;;;;;;;;;;;;3.70;90.83;100492.94;5087560;28;19915;-67
2022/02/05 07:17:13;;;;;;;;;;;;;;;3.69;91.47;100503.63;5101594;28;20372;-68
2022/02/05 07:20:00;;;;;;;;;;;;;;;3.78;90.83;100513.75;5093911;28;20034;-67
2022/02/05 07:22:31;;;;;;;;;;;;;;;3.78;90.96;100509.25;5106741;28;20037;-67
2022/02/05 07:30:06;;;;;;;;;;;;;;;3.81;91.71;100495.81;5103985;28;19942;-67
2022/02/05 07:32:31;;;;;;;;;;;;;;;3.91;91.78;100506.78;5101911;28;20352;-67
2022/02/05 07:34:56;;;;;;;;;;;;;;;4.05;91.09;100507.69;5105861;28;19960;-67
2022/02/05 07:37:22;;;;;;;;;;;;;;;4.31;89.78;100514.13;5104426;28;19912;-67
2022/02/05 07:39:48;;;;;;;;;;;;;;;4.52;89.11;100520.81;5098256;28;19915;-68
2022/02/05 07:42:14;;;;;;;;;;;;;;;4.54;89.25;100527.75;5106701;28;19915;-67
2022/02/05 07:44:39;;;;;;;;;;;;;;;4.57;88.90;100526.69;5104553;28;19916;-67
2022/02/05 07:47:05;;;;;;;;;;;;;;;4.60;89.31;100537.13;5108341;28;19916;-67
2022/02/05 07:49:37;;;;;;;;;;;;;;;4.68;88.75;100546.34;5108581;28;19922;-67
2022/02/05 07:52:04;;;;;;;;;;;;;;;4.75;88.89;100541.53;5102157;28;19942;-66
2022/02/05 07:54:29;;;;;;;;;;;;;;;4.99;87.77;100561.28;5095852;28;20053;-66
2022/02/05 07:56:54;;;;;;;;;;;;;;;5.07;86.99;100555.50;5086138;28;19998;-66
2022/02/05 07:59:20;;;;;;;;;;;;;;;5.22;86.00;100563.38;5085102;28;19971;-67
2022/02/05 08:01:45;;;;;;;;;;;;;;;5.19;86.42;100571.56;5092419;28;19911;-67
2022/02/05 08:04:11;;;;;;;;;;;;;;;5.33;85.23;100565.38;5085486;28;19923;-67
2022/02/05 08:06:36;;;;;;;;;;;;;;;5.56;84.76;100568.31;5084593;28;20315;-67
2022/02/05 08:09:13;;;;;;;;;;;;;;;5.67;84.07;100581.78;5086005;28;19998;-66
2022/02/05 08:11:43;;;;;;;;;;;;;;;5.86;83.32;100577.03;5086513;28;19916;-67
2022/02/05 08:14:10;;;;;;;;;;;;;;;5.88;83.38;100572.47;5095927;28;19923;-67
2022/02/05 08:19:04;;;;;;;;;;;;;;;5.96;83.41;100563.97;5102476;28;20026;-64
2022/02/05 08:21:30;;;;;;;;;;;;;;;6.09;82.98;100573.72;5099974;28;19962;-66
2022/02/05 08:23:55;;;;;;;;;;;;;;;6.11;83.34;100566.50;5101546;28;20394;-67
2022/02/05 08:26:27;;;;;;;;;;;;;;;6.26;84.21;100576.13;5093198;28;19919;-66
2022/02/05 08:28:52;;;;;;;;;;;;;;;6.41;83.14;100572.44;5098860;28;20456;-67
2022/02/05 08:31:18;;;;;;;;;;;;;;;6.69;81.81;100585.66;5097418;28;19924;-67
2022/02/05 08:33:44;;;;;;;;;;;;;;;6.86;81.30;100592.47;5108118;28;19927;-67
2022/02/05 08:36:09;;;;;;;;;;;;;;;7.02;80.03;100592.31;5095839;28;19923;-68
2022/02/05 08:38:35;;;;;;;;;;;;;;;7.23;77.92;100591.66;5097975;28;20323;-67
2022/02/05 08:41:00;;;;;;;;;;;;;;;7.35;77.15;100585.44;5090499;28;19919;-67
2022/02/05 08:43:25;;;;;;;;;;;;;;;7.60;75.54;100581.88;5108559;28;20010;-68
2022/02/05 08:45:51;;;;;;;;;;;;;;;7.73;74.47;100598.72;5090287;28;19911;-67
2022/02/05 08:48:16;;;;;;;;;;;;;;;7.84;74.10;100596.16;5094310;28;20439;-67
2022/02/05 08:50:42;;;;;;;;;;;;;;;7.83;74.17;100589.97;5099521;28;19923;-68
2022/02/05 08:53:13;;;;;;;;;;;;;;;7.86;74.14;100602.22;5090571;28;20011;-67
2022/02/05 08:55:39;;;;;;;;;;;;;;;8.05;73.56;100599.94;5087257;28;19920;-67
2022/02/05 08:58:08;;;;;;;;;;;;;;;8.17;72.30;100609.72;5087585;28;20011;-66
2022/02/05 09:00:42;;;;;;;;;;;;;;;8.15;72.98;100607.16;5099581;28;20404;-67
2022/02/05 09:03:12;;;;;;;;;;;;;;;8.24;72.46;100594.97;5107283;28;19919;-68
2022/02/05 09:08:09;;;;;;;;;;;;;;;8.47;71.10;100600.34;5105366;28;19916;-69
2022/02/05 09:16:11;;;;;;;;;;;;;;;8.76;68.87;100603.47;5077049;28;20379;-67
2022/02/05 09:18:36;;;;;;;;;;;;;;;8.91;68.34;100615.69;5111795;28;20384;-68
2022/02/05 09:21:02;;;;;;;;;;;;;;;8.85;68.47;100611.69;5110857;28;19922;-68
2022/02/05 09:23:27;;;;;;;;;;;;;;;8.89;68.28;100610.47;5104556;28;19934;-68
2022/02/05 09:25:53;;;;;;;;;;;;;;;8.88;68.17;100621.28;5089684;28;19912;-67
2022/02/05 09:28:21;;;;;;;;;;;;;;;8.91;67.56;100621.88;5104571;28;19992;-67
2022/02/05 09:31:02;;;;;;;;;;;;;;;9.01;66.45;100624.72;5090547;28;19912;-67
2022/02/05 09:33:27;;;;;;;;;;;;;;;8.92;66.21;100623.59;5090160;28;19923;-67
2022/02/05 09:35:53;;;;;;;;;;;;;;;9.07;65.49;100643.81;5088831;28;20260;-67
2022/02/05 09:38:18;;;;;;;;;;;;;;;8.98;64.57;100643.69;5089659;28;20372;-66
2022/02/05 09:40:43;;;;;;;;;;;;;;;9.20;62.20;100643.75;5094169;28;19912;-68
2022/02/05 09:43:09;;;;;;;;;;;;;;;9.27;61.40;100640.50;5089967;28;20015;-67
2022/02/05 09:45:35;;;;;;;;;;;;;;;9.26;60.37;100654.00;5093095;28;20685;-68
2022/02/05 09:48:00;;;;;;;;;;;;;;;9.24;59.64;100656.78;5111075;28;19938;-67
2022/02/05 09:50:26;;;;;;;;;;;;;;;9.33;58.27;100648.03;5099304;28;20322;-67
2022/02/05 09:52:53;;;;;;;;;;;;;;;9.37;58.07;100645.09;5092700;28;19920;-67
2022/02/05 09:55:18;;;;;;;;;;;;;;;9.24;58.67;100643.41;5092444;28;20006;-67
2022/02/05 09:57:44;;;;;;;;;;;;;;;9.32;57.96;100653.50;5090189;28;19998;-66
2022/02/05 10:00:16;;;;;;;;;;;;;;;9.38;58.07;100653.03;5090016;27;20003;-67
2022/02/05 10:02:42;;;;;;;;;;;;;;;9.50;58.30;100656.56;5106833;27;20253;-67
2022/02/05 10:05:10;;;;;;;;;;;;;;;9.70;56.80;100648.69;5087039;28;19915;-68
2022/02/05 10:07:50;;;;;;;;;;;;;;;9.70;56.30;100627.25;5093861;28;19985;-67
2022/02/05 10:10:15;;;;;;;;;;;;;;;9.64;56.39;100633.09;5088074;28;20364;-67
2022/02/05 10:12:41;;;;;;;;;;;;;;;9.69;55.19;100630.91;5091186;28;19916;-68
2022/02/05 10:15:06;;;;;;;;;;;;;;;9.92;53.38;100640.66;5107789;28;19915;-68
2022/02/05 10:17:43;;;;;;;;;;;;;;;9.98;52.92;100637.47;5088221;28;19916;-67
2022/02/05 10:20:09;;;;;;;;;;;;;;;10.00;52.61;100643.53;5096423;28;20647;-67
2022/02/05 10:22:36;;;;;;;;;;;;;;;9.94;52.43;100636.03;5089977;28;20347;-66
2022/02/05 10:25:12;;;;;;;;;;;;;;;9.94;52.88;100643.22;5093533;28;19973;-66
2022/02/05 10:27:39;;;;;;;;;;;;;;;10.10;51.01;100644.56;5110196;28;20515;-66
2022/02/05 10:30:09;;;;;;;;;;;;;;;10.00;51.73;100648.06;5092424;28;19920;-66
2022/02/05 10:32:39;;;;;;;;;;;;;;;10.17;50.88;100658.31;5111229;28;19958;-68
2022/02/05 10:35:19;;;;;;;;;;;;;;;10.18;50.58;100644.78;5086825;28;19992;-67
2022/02/05 10:37:51;;;;;;;;;;;;;;;10.11;47.58;100661.50;5103345;28;19995;-67
2022/02/05 10:40:22;;;;;;;;;;;;;;;10.01;46.46;100656.00;5096848;28;20557;-66
2022/02/05 10:43:07;;;;;;;;;;;;;;;10.03;46.49;100658.56;5100912;28;20057;-67
2022/02/05 10:45:47;;;;;;;;;;;;;;;10.14;46.72;100659.44;5089218;28;19911;-67
2022/02/05 10:48:18;;;;;;;;;;;;;;;10.26;46.26;100650.41;5089940;28;19992;-67
2022/02/05 10:50:45;;;;;;;;;;;;;;;10.73;43.23;100668.78;5100867;28;20288;-67
2022/02/05 10:53:21;;;;;;;;;;;;;;;10.74;42.79;100664.28;5107886;28;20543;-66
2022/02/05 10:55:58;;;;;;;;;;;;;;;10.75;42.94;100663.28;5098669;28;19912;-67
2022/02/05 11:06:00;;;;;;;;;;;;;;;10.38;42.44;100688.75;5094345;27;20191;-67
2022/02/05 11:08:25;;;;;;;;;;;;;;;10.12;42.21;100676.63;5090244;28;19923;-66
2022/02/05 11:18:52;;;;;;;;;;;;;;;9.89;42.96;100689.13;5097886;28;19934;-68
2022/02/05 11:21:18;;;;;;;;;;;;;;;9.79;43.35;100695.31;5095102;28;20002;-67
2022/02/05 11:23:48;;;;;;;;;;;;;;;9.86;43.23;100684.00;5104306;28;20022;-67
2022/02/05 11:26:13;;;;;;;;;;;;;;;9.91;43.18;100686.31;5105098;28;19969;-68
2022/02/05 11:28:41;;;;;;;;;;;;;;;9.80;43.15;100687.16;5092809;28;20411;-67
2022/02/05 11:31:14;;;;;;;;;;;;;;;9.81;43.25;100683.53;5107890;28;19912;-66
2022/02/05 11:33:40;;;;;;;;;;;;;;;9.92;43.00;100685.34;5088812;28;19920;-66
2022/02/05 11:38:38;;;;;;;;;;;;;;;10.06;43.01;100694.00;5107147;28;19911;-67
2022/02/05 11:41:06;;;;;;;;;;;;;;;10.16;41.34;100694.97;5102346;28;19915;-68
2022/02/05 11:43:33;;;;;;;;;;;;;;;10.18;41.03;100700.22;5088331;28;19937;-67
2022/02/05 11:46:07;;;;;;;;;;;;;;;10.07;41.33;100698.41;5098125;28;19969;-67
2022/02/05 11:48:48;;;;;;;;;;;;;;;9.90;41.71;100709.56;5092715;28;19920;-67
2022/02/05 11:51:23;;;;;;;;;;;;;;;9.84;42.65;100702.03;5099929;28;20273;-66
2022/02/05 11:53:55;;;;;;;;;;;;;;;9.78;42.76;100701.66;5092493;28;19918;-66
2022/02/05 11:56:20;;;;;;;;;;;;;;;9.92;42.19;100699.59;5092218;28;19924;-67
2022/02/05 11:58:57;;;;;;;;;;;;;;;9.80;42.32;100702.41;5099397;28;20756;-66
2022/02/05 12:01:51;;;;;;;;;;;;;;;9.78;42.26;100713.22;5095056;28;21554;-67
2022/02/05 12:04:23;;;;;;;;;;;;;;;9.73;41.92;100709.19;5066478;28;19958;-67
2022/02/05 12:06:51;;;;;;;;;;;;;;;9.86;41.73;100709.94;5081174;28;19973;-66
2022/02/05 12:09:32;;;;;;;;;;;;;;;9.94;41.54;100721.78;5084682;28;19941;-66
2022/02/05 12:12:17;;;;;;;;;;;;;;;9.80;41.98;100705.06;5082902;28;20007;-66
2022/02/05 12:15:03;;;;;;;;;;;;;;;9.76;41.36;100717.84;5092302;28;19918;-66
2022/02/05 12:17:38;;;;;;;;;;;;;;;9.89;41.82;100697.16;5081622;28;20372;-66
2022/02/05 12:20:09;;;;;;;;;;;;;;;9.86;41.38;100709.94;5083748;28;20648;-66
2022/02/05 12:22:53;;;;;;;;;;;;;;;10.04;40.30;100703.13;5083216;28;20665;-66
2022/02/05 12:25:21;;;;;;;;;;;;;;;9.96;40.82;100698.38;5093405;28;20395;-66
2022/02/05 12:27:46;;;;;;;;;;;;;;;9.86;41.25;100712.63;5081009;28;19953;-67
2022/02/05 12:30:43;;;;;;;;;;;;;;;9.91;41.12;100716.66;5097518;28;19974;-67
2022/02/05 12:33:08;;;;;;;;;;;;;;;10.06;41.64;100731.53;5082649;28;19921;-66
2022/02/05 12:35:34;;;;;;;;;;;;;;;10.05;40.82;100734.28;5089991;28;19919;-67
2022/02/05 12:38:04;;;;;;;;;;;;;;;10.19;40.27;100726.91;5094856;28;19919;-67
2022/02/05 12:40:30;;;;;;;;;;;;;;;10.33;39.09;100734.72;5090095;28;20026;-67
2022/02/05 12:42:56;;;;;;;;;;;;;;;10.18;39.69;100741.28;5084133;28;19920;-67
2022/02/05 12:45:43;;;;;;;;;;;;;;;10.13;39.57;100732.75;5076702;28;19923;-67
2022/02/05 12:48:09;;;;;;;;;;;;;;;10.12;39.19;100731.03;5085610;28;20436;-67
2022/02/05 12:50:37;;;;;;;;;;;;;;;10.07;39.87;100735.94;5087659;28;19916;-70
2022/02/05 12:53:02;;;;;;;;;;;;;;;10.12;40.27;100744.44;5093062;28;21759;-70
2022/02/05 12:55:33;;;;;;;;;;;;;;;10.16;40.34;100737.03;5088039;28;19990;-68
2022/02/05 12:58:02;;;;;;;;;;;;;;;10.13;40.10;100748.81;5077081;28;19923;-69
2022/02/05 13:00:27;;;;;;;;;;;;;;;10.22;40.22;100732.03;5088776;28;20662;-67
2022/02/05 13:02:53;;;;;;;;;;;;;;;10.06;41.08;100755.66;5095394;28;19962;-67
2022/02/05 13:05:18;;;;;;;;;;;;;;;10.18;40.20;100746.66;5088987;28;19935;-67
2022/02/05 13:07:46;;;;;;;;;;;;;;;10.19;40.07;100752.88;5089870;28;19924;-67
2022/02/05 13:10:12;;;;;;;;;;;;;;;10.17;40.11;100750.31;5079459;28;19916;-67
2022/02/05 13:12:42;;;;;;;;;;;;;;;10.26;39.68;100754.09;5094981;28;19922;-66
2022/02/05 13:15:21;;;;;;;;;;;;;;;10.27;38.83;100759.31;5080337;28;20018;-66
2022/02/05 13:26:07;;;;;;;;;;;;;;;10.18;39.77;100773.44;5095529;28;19923;-67
2022/02/05 13:36:18;;;;;;;;;;;;;;;10.10;41.27;100772.34;5099367;28;19912;-67
2022/02/05 13:39:08;;;;;;;;;;;;;;;10.21;40.49;100783.94;5081734;28;19920;-68
2022/02/05 13:41:41;;;;;;;;;;;;;;;9.96;41.33;100781.44;5099946;28;19915;-68
2022/02/05 13:44:13;;;;;;;;;;;;;;;9.89;41.80;100776.66;5085224;28;19931;-69
2022/02/05 13:46:38;;;;;;;;;;;;;;;9.80;41.46;100791.63;5102687;28;19911;-68
2022/02/05 13:49:14;;;;;;;;;;;;;;;9.86;40.96;100783.13;5087299;28;20379;-69
2022/02/05 13:51:40;;;;;;;;;;;;;;;9.77;40.70;100786.50;5089635;28;20347;-69
2022/02/05 13:54:05;;;;;;;;;;;;;;;9.82;41.04;100792.38;5088473;28;19915;-70
2022/02/05 13:56:34;;;;;;;;;;;;;;;9.74;41.53;100792.09;5090190;28;19961;-69
2022/02/05 13:59:00;;;;;;;;;;;;;;;9.69;41.98;100805.00;5095277;28;19935;-68
2022/02/05 14:01:29;;;;;;;;;;;;;;;9.66;41.92;100799.88;5097576;28;19920;-70
2022/02/05 14:03:54;;;;;;;;;;;;;;;9.66;42.47;100802.56;5096638;28;19912;-68
2022/02/05 14:06:20;;;;;;;;;;;;;;;9.60;43.02;100808.38;5099119;28;20277;-68
2022/02/05 14:08:56;;;;;;;;;;;;;;;9.56;43.45;100812.25;5087608;28;19919;-70
2022/02/05 14:11:28;;;;;;;;;;;;;;;9.52;43.76;100816.16;5089985;28;19977;-70
2022/02/05 14:14:18;;;;;;;;;;;;;;;9.45;43.60;100817.59;5091518;28;19923;-69
2022/02/05 14:16:44;;;;;;;;;;;;;;;9.39;43.62;100823.41;5099875;28;20326;-69
2022/02/05 14:19:19;;;;;;;;;;;;;;;9.52;43.72;100820.63;5098817;28;19915;-69
2022/02/05 14:21:47;;;;;;;;;;;;;;;9.47;43.72;100823.66;5098531;28;20474;-69
2022/02/05 14:24:17;;;;;;;;;;;;;;;9.50;44.02;100822.56;5106117;28;19919;-65
2022/02/05 14:26:53;;;;;;;;;;;;;;;9.40;44.22;100825.09;5089698;28;19912;-65
2022/02/05 14:29:19;;;;;;;;;;;;;;;9.40;44.14;100818.88;5094050;28;19952;-66
2022/02/05 14:31:55;;;;;;;;;;;;;;;9.54;43.49;100832.09;5100320;28;19920;-68
2022/02/05 14:42:11;;;;;;;;;;;;;;;9.34;44.11;100836.25;5104943;28;20330;-67
2022/02/05 14:44:36;;;;;;;;;;;;;;;9.40;43.80;100834.94;5103454;28;20371;-68
2022/02/05 14:47:02;;;;;;;;;;;;;;;9.30;43.86;100848.16;5101976;28;19912;-68
2022/02/05 14:49:28;;;;;;;;;;;;;;;9.32;43.88;100855.09;5103300;28;19966;-68
2022/02/05 14:51:54;;;;;;;;;;;;;;;9.22;44.07;100856.75;5102337;28;19955;-68
2022/02/05 14:54:19;;;;;;;;;;;;;;;9.21;44.48;100852.38;5108910;28;20371;-69
2022/02/05 14:56:45;;;;;;;;;;;;;;;9.22;44.34;100856.75;5106968;28;20020;-69
2022/02/05 14:59:10;;;;;;;;;;;;;;;9.12;44.64;100858.41;5106182;28;19934;-69
2022/02/05 15:01:36;;;;;;;;;;;;;;;9.06;44.68;100860.66;5101589;28;19998;-69
2022/02/05 15:04:01;;;;;;;;;;;;;;;9.10;44.53;100863.00;5108023;28;19912;-68
2022/02/05 15:06:30;;;;;;;;;;;;;;;9.06;44.83;100868.69;5107992;28;19980;-68
2022/02/05 15:08:59;;;;;;;;;;;;;;;8.97;44.94;100864.03;5100601;28;19915;-69
2022/02/05 15:11:28;;;;;;;;;;;;;;;9.03;45.06;100863.59;5091378;28;19915;-69
2022/02/05 15:13:55;;;;;;;;;;;;;;;8.92;44.88;100879.53;5086075;28;19916;-67
2022/02/05 15:16:21;;;;;;;;;;;;;;;8.85;45.51;100884.50;5107843;28;19911;-68
2022/02/05 15:18:57;;;;;;;;;;;;;;;8.76;45.59;100887.81;5089044;28;20363;-68
2022/02/05 15:21:27;;;;;;;;;;;;;;;8.76;45.33;100894.97;5098339;28;19916;-67
2022/02/05 15:23:52;;;;;;;;;;;;;;;8.67;45.37;100882.25;5093281;28;19919;-68
2022/02/05 15:26:19;;;;;;;;;;;;;;;8.65;45.79;100892.22;5105200;27;19911;-68
2022/02/05 15:28:44;;;;;;;;;;;;;;;8.60;45.59;100895.22;5090455;28;19915;-66
2022/02/05 15:31:10;;;;;;;;;;;;;;;8.54;45.69;100897.44;5107961;28;19923;-65
2022/02/05 15:33:42;;;;;;;;;;;;;;;8.54;45.79;100902.78;5103970;28;19915;-65
2022/02/05 15:36:08;;;;;;;;;;;;;;;8.42;45.76;100907.19;5105864;28;19994;-64
2022/02/05 15:39:28;;;;;;;;;;;;;;;8.36;46.20;100906.78;5088307;28;19916;-65
2022/02/05 15:44:03;;;;;;;;;;;;;;;8.25;46.11;100925.34;5101315;28;20500;-66
2022/02/05 15:46:29;;;;;;;;;;;;;;;8.29;45.96;100924.19;5107326;28;20383;-66
2022/02/05 15:48:54;;;;;;;;;;;;;;;8.16;46.35;100929.47;5108475;28;20387;-66
2022/02/05 15:51:21;;;;;;;;;;;;;;;8.13;45.28;100926.16;5107314;28;19923;-65
2022/02/05 15:53:53;;;;;;;;;;;;;;;7.98;46.11;100938.75;5097818;28;19912;-66